createdAt,value
2019-01-27T00:00:17.223Z,7.49
2019-01-27T00:03:47.357Z,7.12
2019-01-27T00:07:17.526Z,9.38
2019-01-27T00:10:47.706Z,6.8
2019-01-27T00:14:17.827Z,9.32
2019-01-27T00:17:47.895Z,4.47
2019-01-27T00:21:18.006Z,10.15
2019-01-27T00:24:48.021Z,7.04
2019-01-27T00:28:18.145Z,3.95
2019-01-27T00:31:48.225Z,15.49
2019-01-27T00:35:18.345Z,7.2
2019-01-27T00:38:48.635Z,11.65
2019-01-27T00:42:18.785Z,10.65
2019-01-27T00:45:49.890Z,8.38
2019-01-27T00:49:20.104Z,8.61
2019-01-27T00:52:50.039Z,7.76
2019-01-27T00:56:20.004Z,10.53
2019-01-27T00:59:50.005Z,11.01
2019-01-27T01:03:20.139Z,8.19
2019-01-27T01:06:50.225Z,9.71
2019-01-27T01:10:21.167Z,13.09
2019-01-27T01:13:51.305Z,11.32
2019-01-27T01:17:21.343Z,10.64
2019-01-27T01:20:51.414Z,9.69
2019-01-27T01:24:21.613Z,9.14
2019-01-27T01:27:51.743Z,9.15
2019-01-27T01:31:21.934Z,10
2019-01-27T01:34:51.932Z,11.68
2019-01-27T01:38:21.903Z,12.74
2019-01-27T01:41:51.943Z,12.96
2019-01-27T01:45:24.375Z,13.24
2019-01-27T01:48:55.382Z,8.01
2019-01-27T01:52:25.553Z,9.59
2019-01-27T01:55:55.592Z,11.82
2019-01-27T01:59:25.692Z,6.48
2019-01-27T02:00:18.733Z,7.51
2019-01-27T02:03:48.892Z,8.96
2019-01-27T02:07:19.072Z,9.44
2019-01-27T02:10:49.262Z,3.52
2019-01-27T02:14:19.371Z,13.19
2019-01-27T02:17:49.421Z,12.66
2019-01-27T02:21:19.491Z,12.23
2019-01-27T02:24:49.575Z,10.19
2019-01-27T02:28:19.791Z,11.38
2019-01-27T02:31:49.891Z,15.65
2019-01-27T02:35:19.991Z,11.26
2019-01-27T02:38:50.039Z,13.16
2019-01-27T02:42:20.082Z,12.94
2019-01-27T02:45:50.128Z,11.27
2019-01-27T02:49:21.051Z,13.14
2019-01-27T02:52:51.110Z,12.47
2019-01-27T02:56:21.340Z,13.16
2019-01-27T02:59:52.795Z,13.11
2019-01-27T03:03:23.020Z,10.16
2019-01-27T03:06:58.553Z,11.8
2019-01-27T03:10:28.700Z,12.36
2019-01-27T03:13:58.890Z,14.91
2019-01-27T03:17:29.020Z,16.48
2019-01-27T03:20:59.056Z,12.7
2019-01-27T03:24:29.110Z,17.98
2019-01-27T03:27:59.220Z,11.11
2019-01-27T03:31:29.343Z,13.2
2019-01-27T03:34:59.310Z,20.94
2019-01-27T03:38:29.440Z,14.14
2019-01-27T03:41:59.570Z,19.09
2019-01-27T03:45:29.669Z,13.76
2019-01-27T03:48:59.879Z,16.2
2019-01-27T03:52:30.849Z,16.31
2019-01-27T03:56:01.021Z,15.08
2019-01-27T03:59:31.050Z,14.68
2019-01-27T04:00:17.770Z,16.9
2019-01-27T04:03:47.779Z,14.74
2019-01-27T04:07:17.972Z,19.35
2019-01-27T04:10:48.021Z,18.25
2019-01-27T04:14:18.183Z,15.64
2019-01-27T04:17:48.362Z,19.51
2019-01-27T04:21:18.459Z,17.54
2019-01-27T04:24:48.606Z,17.92
2019-01-27T04:28:18.779Z,13.7
2019-01-27T04:31:48.808Z,16.45
2019-01-27T04:35:18.963Z,17.94
2019-01-27T04:38:49.039Z,19.08
2019-01-27T04:42:19.207Z,19.21
2019-01-27T04:45:49.238Z,16.68
2019-01-27T04:49:19.369Z,15.4
2019-01-27T04:52:50.489Z,16.77
2019-01-27T04:56:20.558Z,13.69
2019-01-27T04:59:50.702Z,13.32
2019-01-27T05:05:41.708Z,16.73
2019-01-27T05:09:11.879Z,16.38
2019-01-27T05:12:42.058Z,16.9
2019-01-27T05:16:12.139Z,15.61
2019-01-27T05:19:42.223Z,19.75
2019-01-27T05:23:12.328Z,19.01
2019-01-27T05:26:42.451Z,19
2019-01-27T05:30:15.548Z,22.09
2019-01-27T05:33:45.748Z,18.24
2019-01-27T05:37:15.862Z,17
2019-01-27T05:40:45.878Z,17.11
2019-01-27T05:44:15.988Z,16.45
2019-01-27T05:47:46.129Z,21.11
2019-01-27T05:51:16.269Z,22.49
2019-01-27T05:54:47.478Z,21.52
2019-01-27T05:58:17.668Z,21.59
2019-01-27T06:00:20.379Z,23.71
2019-01-27T06:03:50.357Z,21.02
2019-01-27T06:07:20.499Z,22.35
2019-01-27T06:10:50.758Z,22.35
2019-01-27T06:14:20.930Z,21.31
2019-01-27T06:17:50.978Z,24.66
2019-01-27T06:21:21.218Z,18.48
2019-01-27T06:24:51.228Z,18.9
2019-01-27T06:28:21.360Z,16.9
2019-01-27T06:31:51.449Z,19.9
2019-01-27T06:35:21.445Z,21.6
2019-01-27T06:38:51.496Z,16.35
2019-01-27T06:42:21.566Z,23.85
2019-01-27T06:45:51.598Z,23.88
2019-01-27T06:49:21.788Z,23.51
2019-01-27T06:52:51.858Z,21.11
2019-01-27T06:56:22.888Z,21.38
2019-01-27T06:59:57.707Z,20.71
2019-01-27T07:03:31.348Z,20.96
2019-01-27T07:07:15.108Z,21.54
2019-01-27T07:11:03.719Z,22.31
2019-01-27T07:14:42.528Z,31.98
2019-01-27T07:18:26.358Z,32.96
2019-01-27T07:22:23.148Z,32.46
2019-01-27T07:26:04.988Z,32.71
2019-01-27T07:32:09.642Z,24.67
2019-01-27T07:35:49.139Z,28.58
2019-01-27T07:39:27.449Z,31.55
2019-01-27T07:43:05.919Z,23.56
2019-01-27T07:46:58.089Z,26.02
2019-01-27T07:52:57.909Z,16.1
2019-01-27T07:57:43.209Z,17.82
2019-01-27T08:00:23.739Z,16.09
2019-01-27T08:06:22.369Z,18.46
2019-01-27T08:10:06.079Z,13.91
2019-01-27T08:13:43.059Z,19.61
2019-01-27T08:19:50.640Z,22.95
2019-01-27T08:23:29.149Z,17.24
2019-01-27T08:29:25.539Z,19.62
2019-01-27T08:33:18.323Z,20.93
2019-01-27T08:36:53.944Z,15.89
2019-01-27T08:40:38.250Z,18.5
2019-01-27T08:44:18.040Z,20.21
2019-01-27T08:47:48.130Z,19.38
2019-01-27T08:51:18.170Z,18.73
2019-01-27T08:54:48.230Z,19.71
2019-01-27T08:58:20.190Z,16.88
2019-01-27T09:04:17.576Z,18
2019-01-27T09:07:53.505Z,17.76
2019-01-27T09:11:39.661Z,16.02
2019-01-27T09:17:42.581Z,17.27
2019-01-27T09:21:18.268Z,16.6
2019-01-27T09:25:11.921Z,18.96
2019-01-27T09:28:48.341Z,16.81
2019-01-27T09:32:27.891Z,19.45
2019-01-27T09:36:06.442Z,16.34
2019-01-27T09:40:01.022Z,15.78
2019-01-27T09:43:40.372Z,17.91
2019-01-27T09:47:35.792Z,21.46
2019-01-27T09:52:16.362Z,14.35
2019-01-27T09:55:59.042Z,17.02
2019-01-27T09:59:50.778Z,18.86
2019-01-27T10:01:05.382Z,19.31
2019-01-27T10:04:41.913Z,17.43
2019-01-27T10:10:39.335Z,21.35
2019-01-27T10:14:33.372Z,25.25
2019-01-27T10:20:31.265Z,21.17
2019-01-27T10:24:11.673Z,29.25
2019-01-27T10:27:58.003Z,17.41
2019-01-27T10:31:55.112Z,21.73
2019-01-27T10:37:49.253Z,18
2019-01-27T10:41:26.443Z,19.85
2019-01-27T10:45:04.174Z,20.07
2019-01-27T10:48:42.803Z,18.62
2019-01-27T10:58:42.723Z,24
2019-01-27T11:02:38.017Z,32.89
2019-01-27T11:06:17.108Z,21.29
2019-01-27T11:09:54.138Z,15.12
2019-01-27T11:13:34.604Z,20.73
2019-01-27T11:17:16.934Z,21.31
2019-01-27T11:22:17.424Z,20.1
2019-01-27T11:26:00.780Z,18.88
2019-01-27T11:29:37.654Z,15.58
2019-01-27T11:33:47.955Z,17.5
2019-01-27T11:37:59.834Z,21.16
2019-01-27T11:41:46.074Z,13.24
2019-01-27T11:45:24.415Z,20.16
2019-01-27T11:51:24.533Z,15.09
2019-01-27T11:54:54.666Z,19.75
2019-01-27T11:58:24.694Z,15.19
2019-01-27T12:00:18.189Z,17.19
2019-01-27T12:03:48.485Z,15.44
2019-01-27T12:07:18.577Z,18.83
2019-01-27T12:10:48.736Z,17.31
2019-01-27T12:14:18.946Z,18.3
2019-01-27T12:17:49.077Z,17.73
2019-01-27T12:21:19.238Z,20.75
2019-01-27T12:24:49.296Z,24.83
2019-01-27T12:28:19.296Z,25.98
2019-01-27T12:31:49.418Z,13.91
2019-01-27T12:35:19.916Z,16.01
2019-01-27T12:38:50.036Z,20.76
2019-01-27T12:42:20.106Z,13.78
2019-01-27T12:45:50.256Z,22
2019-01-27T12:49:20.386Z,21.64
2019-01-27T12:52:50.799Z,17.85
2019-01-27T12:56:20.927Z,16.91
2019-01-27T12:59:51.057Z,17.62
2019-01-27T13:03:21.593Z,25.18
2019-01-27T13:06:52.747Z,21.02
2019-01-27T13:10:22.917Z,21.06
2019-01-27T13:13:52.977Z,23.49
2019-01-27T13:17:23.057Z,18.3
2019-01-27T13:20:53.177Z,22.06
2019-01-27T13:24:23.230Z,22.27
2019-01-27T13:27:53.375Z,18.44
2019-01-27T13:31:23.377Z,17.6
2019-01-27T13:34:56.263Z,28
2019-01-27T13:38:26.487Z,24.99
2019-01-27T13:41:56.579Z,26.91
2019-01-27T13:45:26.957Z,21.34
2019-01-27T13:48:57.027Z,19.55
2019-01-27T13:52:26.977Z,19.48
2019-01-27T13:55:57.002Z,29.12
2019-01-27T13:59:26.983Z,26.03
2019-01-27T14:00:20.132Z,32.16
2019-01-27T14:03:50.108Z,33.44
2019-01-27T14:07:21.098Z,25.98
2019-01-27T14:10:51.127Z,36.72
2019-01-27T14:14:21.237Z,41.44
2019-01-27T14:17:51.308Z,21.51
2019-01-27T14:21:21.378Z,21.7
2019-01-27T14:24:51.527Z,37.38
2019-01-27T14:28:21.607Z,24.78
2019-01-27T14:31:51.707Z,29.59
2019-01-27T14:35:21.787Z,25.79
2019-01-27T14:38:51.972Z,24.55
2019-01-27T14:42:22.032Z,30.66
2019-01-27T14:45:52.139Z,26.86
2019-01-27T14:49:22.277Z,22.83
2019-01-27T14:52:52.419Z,21.56
2019-01-27T14:56:22.517Z,20.93
2019-01-27T14:59:52.644Z,21.44
2019-01-27T15:03:22.817Z,28.36
2019-01-27T15:06:52.890Z,37.44
2019-01-27T15:10:24.107Z,30.64
2019-01-27T15:13:54.147Z,32.02
2019-01-27T15:17:24.357Z,47.52
2019-01-27T15:20:59.129Z,27.35
2019-01-27T15:24:29.247Z,32
2019-01-27T15:27:59.426Z,32.06
2019-01-27T15:31:29.447Z,44.1
2019-01-27T15:34:59.547Z,40.94
2019-01-27T15:38:29.646Z,36.76
2019-01-27T15:41:59.727Z,26.26
2019-01-27T15:45:30.237Z,44.11
2019-01-27T15:49:00.349Z,31.16
2019-01-27T15:52:30.387Z,30.56
2019-01-27T15:56:00.508Z,43.25
2019-01-27T15:59:30.518Z,68.01
2019-01-27T16:00:20.405Z,67.76
2019-01-27T16:03:50.594Z,38.15
2019-01-27T16:07:20.727Z,32.21
2019-01-27T16:10:51.950Z,58.42
2019-01-27T16:14:22.012Z,31.29
2019-01-27T16:17:52.197Z,35.08
2019-01-27T16:21:22.187Z,29.7
2019-01-27T16:24:52.377Z,42.36
2019-01-27T16:28:22.397Z,46.35
2019-01-27T16:31:57.892Z,35.64
2019-01-27T16:35:28.047Z,40.73
2019-01-27T16:38:58.309Z,24.38
2019-01-27T16:42:28.446Z,26.49
2019-01-27T16:45:58.597Z,36.58
2019-01-27T16:49:28.617Z,26.4
2019-01-27T16:52:58.717Z,26.16
2019-01-27T16:56:29.176Z,30.27
2019-01-27T16:59:59.247Z,28.65
2019-01-27T17:03:29.319Z,30.32
2019-01-27T17:06:59.371Z,25.88
2019-01-27T17:10:29.427Z,22.3
2019-01-27T17:14:00.517Z,25.26
2019-01-27T17:17:30.597Z,30.12
2019-01-27T17:21:00.726Z,21.64
2019-01-27T17:24:30.857Z,23.36
2019-01-27T17:28:01.047Z,24.73
2019-01-27T17:31:31.209Z,27.19
2019-01-27T17:35:01.763Z,26.19
2019-01-27T17:38:32.027Z,20.64
2019-01-27T17:42:02.296Z,43.84
2019-01-27T17:45:32.426Z,33.31
2019-01-27T17:49:02.706Z,32.08
2019-01-27T17:52:32.806Z,30.64
2019-01-27T17:56:03.267Z,22.62
2019-01-27T17:59:38.706Z,37.39
2019-01-27T18:00:34.581Z,41.8
2019-01-27T18:06:30.526Z,48.02
2019-01-27T18:10:22.839Z,40.81
2019-01-27T18:14:31.136Z,40.35
2019-01-27T18:18:01.393Z,54.3
2019-01-27T18:21:31.481Z,40.9
2019-01-27T18:25:01.518Z,39.36
2019-01-27T18:28:31.766Z,43.31
2019-01-27T18:32:01.976Z,58.05
2019-01-27T18:35:32.017Z,46.65
2019-01-27T18:39:06.613Z,39.9
2019-01-27T18:42:37.243Z,37.54
2019-01-27T18:46:07.615Z,35.75
2019-01-27T18:49:37.729Z,35.36
2019-01-27T18:53:20.146Z,30.48
2019-01-27T18:56:55.786Z,36.7
2019-01-27T19:00:37.986Z,39.55
2019-01-27T19:04:15.976Z,53.06
2019-01-27T19:07:55.086Z,37.29
2019-01-27T19:11:35.306Z,44.27
2019-01-27T19:16:29.526Z,58.26
2019-01-27T19:20:11.795Z,39.55
2019-01-27T19:24:13.446Z,43.65
2019-01-27T19:28:27.885Z,41.08
2019-01-27T19:34:26.446Z,35.2
2019-01-27T19:38:04.562Z,38.58
2019-01-27T19:41:43.726Z,41.88
2019-01-27T19:45:22.735Z,33.46
2019-01-27T19:49:16.436Z,40.28
2019-01-27T19:53:57.726Z,37.01
2019-01-27T19:57:37.018Z,19.2
2019-01-27T20:00:27.206Z,20.79
2019-01-27T20:04:07.876Z,19.3
2019-01-27T20:07:46.186Z,20.84
2019-01-27T20:17:18.215Z,22.07
2019-01-27T20:20:58.275Z,27.41
2019-01-27T20:24:38.355Z,25.18
2019-01-27T20:28:16.325Z,26.12
2019-01-27T20:34:29.985Z,26.06
2019-01-27T20:38:11.415Z,22.05
2019-01-27T20:41:54.575Z,20.55
2019-01-27T20:46:11.945Z,23.75
2019-01-27T20:49:50.965Z,22.35
2019-01-27T20:53:26.837Z,21.61
2019-01-27T20:57:04.761Z,17.79
2019-01-27T21:00:44.713Z,17.62
2019-01-27T21:04:22.930Z,24.96
2019-01-27T21:08:04.824Z,25.19
2019-01-27T21:11:44.830Z,18.8
2019-01-27T21:18:12.353Z,26.62
2019-01-27T21:21:42.504Z,26.85
2019-01-27T21:25:12.824Z,22.26
2019-01-27T21:28:42.876Z,26.04
2019-01-27T21:32:12.989Z,20.73
2019-01-27T21:35:42.944Z,21.62
2019-01-27T21:39:13.103Z,16.48
2019-01-27T21:42:47.562Z,25.51
2019-01-27T21:46:18.056Z,21.12
2019-01-27T21:49:48.138Z,14.54
2019-01-27T21:53:18.360Z,25
2019-01-27T21:56:48.440Z,17.59
2019-01-27T22:00:18.978Z,17.2
2019-01-27T22:03:49.016Z,16.47
2019-01-27T22:07:19.213Z,15.19
2019-01-27T22:10:49.239Z,20.56
2019-01-27T22:14:19.269Z,16.31
2019-01-27T22:17:49.379Z,30.88
2019-01-27T22:21:20.466Z,14.73
2019-01-27T22:24:50.646Z,14.46
2019-01-27T22:28:20.812Z,14.95
2019-01-27T22:31:50.900Z,20.01
2019-01-27T22:35:21.088Z,19.1
2019-01-27T22:38:51.167Z,26.06
2019-01-27T22:42:21.282Z,20.88
2019-01-27T22:45:51.425Z,14.86
2019-01-27T22:49:21.482Z,21.71
2019-01-27T22:52:51.501Z,21.81
2019-01-27T22:56:21.587Z,15.99
2019-01-27T22:59:51.697Z,19.62
2019-01-27T23:03:21.934Z,16.46
2019-01-27T23:06:51.921Z,21.08
2019-01-27T23:10:22.051Z,17.3
2019-01-27T23:13:52.101Z,17.56
2019-01-27T23:17:22.197Z,15.93
2019-01-27T23:20:52.245Z,15.09
2019-01-27T23:24:23.383Z,15.6
2019-01-27T23:27:53.501Z,20.04
2019-01-27T23:31:23.683Z,15.35
2019-01-27T23:34:53.797Z,16.69
2019-01-27T23:38:23.906Z,19.48
2019-01-27T23:41:53.946Z,17.54
2019-01-27T23:45:24.242Z,14.28
2019-01-27T23:48:54.371Z,17.7
2019-01-27T23:52:24.549Z,20.01
2019-01-27T23:55:54.631Z,19.44
2019-01-27T23:59:24.735Z,18.56
